Time;durP1;ratioP1;P1;durP2;ratioP2;P2;SDS_P1;SDS_P2;PMS_P1;PMS_P2;Temp;Humidity;BMP_temperature;BMP_pressure;BME280_temperature;BME280_humidity;BME280_pressure;Samples;Min_cycle;Max_cycle;Signal;HPM_P1;HPM_P2
2022/12/25 00:02:02;;;;;;;0.10;0.10;;;;;;;8.64;100.00;98731.38;7400746;19;20037;-57
2022/12/25 00:04:28;;;;;;;0.10;0.00;;;;;;;8.49;100.00;98727.94;7400502;19;20011;-57
2022/12/25 00:06:54;;;;;;;0.10;0.10;;;;;;;8.31;100.00;98725.50;7398803;19;20132;-57
2022/12/25 00:09:21;;;;;;;0.20;0.10;;;;;;;8.32;100.00;98730.56;7397666;19;20355;-56
2022/12/25 00:11:47;;;;;;;0.10;0.10;;;;;;;8.35;100.00;98734.38;7402343;19;20010;-56
2022/12/25 00:14:13;;;;;;;0.15;0.08;;;;;;;8.12;100.00;98730.53;7398640;19;20003;-57
2022/12/25 00:16:39;;;;;;;0.10;0.00;;;;;;;8.05;100.00;98733.75;7398773;19;20030;-57
2022/12/25 00:19:05;;;;;;;0.20;0.20;;;;;;;7.97;100.00;98735.38;7399335;19;20011;-57
2022/12/25 00:21:32;;;;;;;0.10;0.05;;;;;;;7.86;100.00;98735.25;7400477;19;20006;-57
2022/12/25 00:23:58;;;;;;;0.47;0.40;;;;;;;7.80;100.00;98728.09;7398238;19;20327;-57
2022/12/25 00:26:26;;;;;;;0.10;0.10;;;;;;;7.87;100.00;98747.88;7396384;19;20011;-57
2022/12/25 00:28:57;;;;;;;0.10;0.10;;;;;;;8.05;100.00;98739.28;7386708;19;20491;-57
2022/12/25 00:31:23;;;;;;;0.10;0.00;;;;;;;8.23;100.00;98738.22;7397090;19;20013;-57
2022/12/25 00:33:51;;;;;;;0.10;0.10;;;;;;;8.63;100.00;98737.44;7399755;19;20010;-57
2022/12/25 00:36:20;;;;;;;0.10;0.00;;;;;;;8.12;100.00;98727.03;7400173;19;20017;-57
2022/12/25 00:38:46;;;;;;;0.10;0.08;;;;;;;8.13;100.00;98731.31;7396747;19;20021;-57
2022/12/25 00:42:17;;;;;;;0.40;0.40;;;;;;;8.28;100.00;98745.88;7395965;19;20074;-57
2022/12/25 00:44:09;;;;;;;0.10;0.10;;;;;;;8.67;100.00;98744.28;7396846;19;20335;-57
2022/12/25 00:46:35;;;;;;;12.07;0.52;;;;;;;8.26;100.00;98751.16;7396767;19;20462;-56
2022/12/25 00:49:02;;;;;;;0.10;0.00;;;;;;;8.07;100.00;98750.66;7396604;19;20355;-57
2022/12/25 00:51:28;;;;;;;0.10;0.10;;;;;;;8.35;100.00;98748.25;7398914;19;20011;-57
2022/12/25 00:53:54;;;;;;;0.10;0.03;;;;;;;8.07;100.00;98734.03;7398543;19;20037;-57
2022/12/25 00:56:20;;;;;;;0.10;0.00;;;;;;;8.14;100.00;98730.06;7395481;19;20062;-57
2022/12/25 00:58:47;;;;;;;0.45;0.45;;;;;;;8.27;100.00;98727.72;7395959;19;20006;-57
2022/12/25 01:01:13;;;;;;;0.00;0.00;;;;;;;9.45;100.00;98722.72;7396971;19;20020;-57
2022/12/25 01:03:39;;;;;;;0.10;0.00;;;;;;;9.25;100.00;98720.81;7399785;19;20015;-57
2022/12/25 01:06:06;;;;;;;0.10;0.00;;;;;;;9.30;100.00;98730.44;7396446;19;20018;-57
2022/12/25 01:08:35;;;;;;;0.10;0.10;;;;;;;8.90;100.00;98732.13;7394235;19;20040;-57
2022/12/25 01:11:05;;;;;;;0.28;0.28;;;;;;;8.88;100.00;98740.19;7395669;19;20358;-57
2022/12/25 01:13:34;;;;;;;0.10;0.10;;;;;;;9.10;100.00;98736.84;7398820;19;20455;-57
2022/12/25 01:16:07;;;;;;;0.30;0.20;;;;;;;8.88;100.00;98737.41;7395879;19;20041;-57
2022/12/25 01:18:34;;;;;;;0.10;0.10;;;;;;;9.18;100.00;98741.47;7395503;19;20350;-57
2022/12/25 01:21:07;;;;;;;0.10;0.10;;;;;;;8.88;100.00;98740.19;7395401;19;20014;-57
2022/12/25 01:23:33;;;;;;;0.10;0.00;;;;;;;8.83;100.00;98743.69;7399105;19;20501;-57
2022/12/25 01:26:04;;;;;;;0.10;0.00;;;;;;;8.82;100.00;98741.41;7397639;19;20462;-57
2022/12/25 01:28:30;;;;;;;0.10;0.00;;;;;;;8.72;100.00;98753.94;7394112;19;20006;-57
2022/12/25 01:30:56;;;;;;;0.22;0.20;;;;;;;8.74;100.00;98745.88;7396603;19;20021;-57
2022/12/25 01:33:23;;;;;;;0.10;0.10;;;;;;;8.71;100.00;98747.59;7398610;19;20037;-57
2022/12/25 01:35:49;;;;;;;0.10;0.10;;;;;;;8.78;100.00;98754.75;7394920;19;20014;-57
2022/12/25 01:38:15;;;;;;;0.90;0.32;;;;;;;8.81;100.00;98751.75;7394266;19;20017;-57
2022/12/25 01:40:41;;;;;;;0.10;0.08;;;;;;;9.28;100.00;98757.97;7393983;19;20011;-57
2022/12/25 01:43:22;;;;;;;0.10;0.00;;;;;;;8.92;100.00;98746.28;7397042;19;20025;-57
2022/12/25 01:45:51;;;;;;;0.10;0.10;;;;;;;8.63;100.00;98754.84;7397409;19;20010;-57
2022/12/25 01:48:22;;;;;;;0.10;0.10;;;;;;;8.64;100.00;98748.03;7396704;19;20018;-57
2022/12/25 01:50:53;;;;;;;0.10;0.10;;;;;;;8.35;100.00;98754.56;7395307;19;20838;-57
2022/12/25 01:53:20;;;;;;;0.10;0.00;;;;;;;8.87;100.00;98744.25;7399176;19;20010;-57
2022/12/25 01:55:50;;;;;;;0.20;0.20;;;;;;;9.12;100.00;98737.13;7395121;19;20030;-57
2022/12/25 01:58:17;;;;;;;0.10;0.00;;;;;;;9.09;100.00;98733.34;7394155;19;20014;-57
2022/12/25 02:00:43;;;;;;;0.10;0.00;;;;;;;9.13;100.00;98738.66;7396866;19;20038;-57
2022/12/25 02:03:09;;;;;;;0.03;0.00;;;;;;;9.03;100.00;98740.84;7395825;19;20018;-57
2022/12/25 02:05:35;;;;;;;0.10;0.00;;;;;;;8.97;100.00;98742.81;7392821;19;20025;-57
2022/12/25 02:08:07;;;;;;;0.10;0.10;;;;;;;8.82;100.00;98736.63;7396851;19;20417;-57
2022/12/25 02:10:34;;;;;;;0.10;0.00;;;;;;;8.78;100.00;98736.06;7391793;19;20351;-57
2022/12/25 02:13:00;;;;;;;0.52;0.52;;;;;;;8.59;100.00;98729.34;7397591;19;20011;-57
2022/12/25 02:15:41;;;;;;;0.10;0.10;;;;;;;8.89;100.00;98730.63;7393924;19;20466;-57
2022/12/25 02:18:45;;;;;;;0.45;0.45;;;;;;;9.04;100.00;98734.03;7393688;19;20686;-57
2022/12/25 02:21:41;;;;;;;0.25;0.10;;;;;;;8.69;100.00;98732.69;7390071;19;20015;-57
2022/12/25 02:24:22;;;;;;;0.00;0.00;;;;;;;8.75;100.00;98731.50;7392753;19;20007;-57
2022/12/25 02:26:59;;;;;;;0.10;0.00;;;;;;;8.89;100.00;98733.41;7392826;19;20022;-57
2022/12/25 02:29:38;;;;;;;0.50;0.50;;;;;;;8.81;100.00;98734.34;7391647;19;20017;-58
2022/12/25 02:32:14;;;;;;;0.10;0.00;;;;;;;8.65;100.00;98735.69;7395076;19;20034;-57
2022/12/25 02:34:44;;;;;;;0.17;0.17;;;;;;;8.77;100.00;98739.34;7393629;19;20010;-57
2022/12/25 02:37:37;;;;;;;0.10;0.10;;;;;;;9.48;100.00;98736.41;7393474;19;20010;-57
2022/12/25 02:40:09;;;;;;;0.10;0.10;;;;;;;8.83;100.00;98749.25;7389659;19;20332;-57
2022/12/25 03:08:05;;;;;;;0.20;0.10;;;;;;;9.57;100.00;98722.28;7391012;19;20011;-57
2022/12/25 03:13:30;;;;;;;0.20;0.10;;;;;;;9.56;100.00;98720.78;7396470;19;20044;-57
2022/12/25 03:18:41;;;;;;;9.50;0.55;;;;;;;9.70;100.00;98719.09;7392552;19;20011;-57
2022/12/25 03:26:55;;;;;;;0.10;0.00;;;;;;;10.03;100.00;98702.56;7398829;19;20084;-57
2022/12/25 03:32:26;;;;;;;0.10;0.10;;;;;;;9.15;100.00;98692.47;7400874;19;20021;-57
2022/12/25 04:36:20;;;;;;;0.20;0.20;;;;;;;8.61;100.00;98712.97;7398134;19;20078;-57
2022/12/25 04:38:46;;;;;;;0.10;0.10;;;;;;;8.54;100.00;98709.84;7396033;19;20011;-57
2022/12/25 04:41:13;;;;;;;0.10;0.10;;;;;;;8.38;100.00;98709.19;7397179;19;20042;-57
2022/12/25 04:43:39;;;;;;;0.13;0.10;;;;;;;8.77;100.00;98706.78;7400848;19;20014;-57
2022/12/25 04:46:05;;;;;;;0.10;0.10;;;;;;;8.28;100.00;98693.19;7396587;19;20346;-57
2022/12/25 04:48:34;;;;;;;0.10;0.00;;;;;;;8.30;100.00;98690.69;7395366;19;20015;-57
2022/12/25 04:51:22;;;;;;;0.10;0.10;;;;;;;8.37;100.00;98684.72;7397009;19;20015;-57
2022/12/25 04:53:49;;;;;;;0.20;0.20;;;;;;;8.36;100.00;98688.72;7400194;19;20010;-57
2022/12/25 04:56:16;;;;;;;0.10;0.10;;;;;;;8.19;100.00;98679.44;7396611;19;20350;-57
2022/12/25 04:58:43;;;;;;;0.17;0.10;;;;;;;8.03;100.00;98685.56;7400178;19;20394;-57
2022/12/25 05:01:10;;;;;;;0.10;0.10;;;;;;;8.11;100.00;98679.13;7400341;19;20031;-57
2022/12/25 05:03:37;;;;;;;0.10;0.00;;;;;;;8.03;100.00;98683.56;7400329;19;20010;-57
2022/12/25 05:06:04;;;;;;;0.10;0.00;;;;;;;8.08;100.00;98676.53;7400552;19;20071;-57
2022/12/25 05:08:33;;;;;;;0.10;0.10;;;;;;;8.08;100.00;98679.31;7394546;19;20011;-57
2022/12/25 05:11:04;;;;;;;0.10;0.10;;;;;;;8.28;100.00;98682.84;7398652;19;20021;-57
2022/12/25 05:13:30;;;;;;;0.10;0.10;;;;;;;8.25;100.00;98666.41;7398972;19;20022;-57
2022/12/25 05:15:57;;;;;;;0.10;0.00;;;;;;;8.21;100.00;98665.84;7400578;19;20423;-57
2022/12/25 05:18:23;;;;;;;0.10;0.10;;;;;;;8.39;100.00;98671.88;7395775;19;20011;-57
2022/12/25 05:20:53;;;;;;;1.92;1.83;;;;;;;8.45;100.00;98663.59;7395949;19;20017;-57
2022/12/25 05:23:20;;;;;;;0.10;0.10;;;;;;;8.39;100.00;98665.56;7400377;19;20466;-57
2022/12/25 05:25:46;;;;;;;0.10;0.00;;;;;;;8.52;100.00;98671.50;7396544;19;20074;-57
2022/12/25 05:28:12;;;;;;;0.30;0.30;;;;;;;8.62;100.00;98672.09;7395415;19;20074;-57
2022/12/25 05:30:39;;;;;;;0.10;0.00;;;;;;;9.12;100.00;98665.69;7394790;19;20014;-57
2022/12/25 05:33:05;;;;;;;0.10;0.10;;;;;;;8.50;100.00;98668.44;7399319;19;20015;-57
2022/12/25 05:35:31;;;;;;;0.10;0.10;;;;;;;9.14;100.00;98663.16;7396411;19;20037;-57
2022/12/25 05:37:57;;;;;;;0.10;0.10;;;;;;;10.52;100.00;98663.03;7397248;19;20014;-57
2022/12/25 05:40:23;;;;;;;0.10;0.10;;;;;;;9.89;100.00;98667.38;7397146;19;20006;-57
2022/12/25 05:42:49;;;;;;;0.47;0.47;;;;;;;9.70;100.00;98680.91;7398200;19;20002;-57
2022/12/25 05:45:15;;;;;;;0.10;0.00;;;;;;;8.90;100.00;98675.88;7397617;19;20015;-57
2022/12/25 05:47:42;;;;;;;0.10;0.00;;;;;;;8.74;100.00;98662.59;7395803;19;20319;-57
2022/12/25 05:50:09;;;;;;;1.25;0.25;;;;;;;9.56;100.00;98665.19;7394454;19;20007;-57
2022/12/25 05:52:35;;;;;;;1.90;0.68;;;;;;;8.79;100.00;98654.31;7397081;19;20015;-57
2022/12/25 05:55:02;;;;;;;0.00;0.00;;;;;;;8.80;100.00;98644.75;7394931;19;20656;-57
2022/12/25 05:57:29;;;;;;;0.10;0.10;;;;;;;8.73;100.00;98645.19;7397048;19;20037;-57
2022/12/25 05:59:55;;;;;;;0.10;0.10;;;;;;;8.66;100.00;98642.88;7398765;19;20006;-57
2022/12/25 06:02:23;;;;;;;0.10;0.00;;;;;;;8.20;100.00;98636.59;7396332;19;20015;-57
2022/12/25 06:04:49;;;;;;;0.10;0.10;;;;;;;8.19;100.00;98629.53;7394406;19;20076;-57
2022/12/25 06:07:16;;;;;;;0.10;0.00;;;;;;;8.38;100.00;98628.00;7393668;19;20096;-57
2022/12/25 06:09:42;;;;;;;0.10;0.10;;;;;;;8.45;100.00;98624.75;7394075;19;20007;-56
2022/12/25 06:12:08;;;;;;;13.25;0.70;;;;;;;8.25;100.00;98633.91;7393482;19;20021;-56
2022/12/25 06:14:35;;;;;;;0.10;0.10;;;;;;;7.89;100.00;98628.97;7393529;19;20015;-56
2022/12/25 06:17:01;;;;;;;0.13;0.13;;;;;;;7.98;100.00;98639.13;7394833;19;20470;-56
2022/12/25 06:19:27;;;;;;;0.80;0.32;;;;;;;8.04;100.00;98643.50;7393743;19;20010;-56
2022/12/25 06:21:54;;;;;;;0.10;0.00;;;;;;;7.92;100.00;98643.84;7393423;19;20014;-56
2022/12/25 06:24:22;;;;;;;0.38;0.20;;;;;;;8.38;100.00;98639.81;7394636;19;20010;-56
2022/12/25 06:26:48;;;;;;;0.10;0.10;;;;;;;9.72;100.00;98633.19;7393924;19;20017;-56
2022/12/25 06:29:14;;;;;;;0.10;0.00;;;;;;;8.69;100.00;98625.22;7391840;19;20035;-56
2022/12/25 06:31:41;;;;;;;0.10;0.10;;;;;;;8.33;100.00;98640.56;7396126;19;20021;-56
2022/12/25 06:34:07;;;;;;;0.52;0.28;;;;;;;8.09;100.00;98636.47;7393627;19;20013;-56
2022/12/25 06:36:36;;;;;;;0.17;0.17;;;;;;;8.10;100.00;98638.75;7393316;19;20398;-56
2022/12/25 06:39:03;;;;;;;0.10;0.10;;;;;;;7.81;100.00;98638.19;7394683;19;20019;-56
2022/12/25 06:41:29;;;;;;;0.00;0.00;;;;;;;7.78;100.00;98633.59;7393563;19;20047;-56
2022/12/25 06:43:59;;;;;;;0.20;0.20;;;;;;;7.65;100.00;98631.97;7396334;19;20557;-56
2022/12/25 06:46:28;;;;;;;0.10;0.00;;;;;;;7.94;100.00;98633.81;7392293;19;20010;-56
2022/12/25 06:48:56;;;;;;;0.10;0.10;;;;;;;7.85;100.00;98642.28;7391105;19;20011;-56
2022/12/25 06:51:25;;;;;;;0.10;0.10;;;;;;;7.58;100.00;98646.22;7393905;19;20019;-56
2022/12/25 06:53:52;;;;;;;0.10;0.10;;;;;;;7.89;100.00;98642.03;7397422;19;20011;-56
2022/12/25 06:56:20;;;;;;;0.10;0.10;;;;;;;7.73;100.00;98642.63;7394731;19;20071;-56
2022/12/25 06:58:50;;;;;;;0.25;0.25;;;;;;;7.62;100.00;98641.22;7400378;19;20014;-56
2022/12/25 07:01:38;;;;;;;1.35;0.20;;;;;;;7.84;100.00;98645.53;7404496;19;20479;-56
2022/12/25 07:04:10;;;;;;;0.10;0.10;;;;;;;7.36;100.00;98653.50;7400011;19;20031;-56
2022/12/25 07:06:36;;;;;;;1.08;0.47;;;;;;;7.79;100.00;98657.31;7400980;19;20007;-55
2022/12/25 07:09:02;;;;;;;0.10;0.10;;;;;;;8.56;100.00;98652.59;7397577;19;20023;-56
2022/12/25 07:11:29;;;;;;;0.10;0.10;;;;;;;8.22;100.00;98645.97;7399737;19;20078;-56
2022/12/25 07:13:56;;;;;;;0.10;0.00;;;;;;;7.82;100.00;98642.50;7403032;19;20010;-56
2022/12/25 07:16:22;;;;;;;0.10;0.10;;;;;;;7.80;100.00;98642.19;7397661;19;20025;-56
2022/12/25 07:18:48;;;;;;;0.10;0.10;;;;;;;7.48;100.00;98642.06;7398720;19;20022;-56
2022/12/25 07:21:17;;;;;;;0.30;0.30;;;;;;;7.78;100.00;98639.16;7399391;19;20415;-56
2022/12/25 07:23:45;;;;;;;0.10;0.10;;;;;;;7.38;100.00;98640.69;7404241;19;20071;-56
2022/12/25 07:26:12;;;;;;;0.93;0.65;;;;;;;7.87;100.00;98647.31;7400086;19;20007;-56
2022/12/25 07:28:38;;;;;;;0.10;0.10;;;;;;;7.46;100.00;98646.56;7397603;19;20015;-56
2022/12/25 07:31:08;;;;;;;0.10;0.10;;;;;;;7.68;100.00;98648.84;7400110;19;20027;-56
2022/12/25 07:33:35;;;;;;;11.93;0.73;;;;;;;7.64;100.00;98660.91;7403262;19;20011;-56
2022/12/25 07:36:02;;;;;;;0.10;0.10;;;;;;;7.98;100.00;98669.63;7400219;19;20070;-56
2022/12/25 07:38:28;;;;;;;0.10;0.08;;;;;;;8.16;100.00;98669.34;7401235;19;20021;-56
2022/12/25 07:40:54;;;;;;;0.65;0.17;;;;;;;7.99;100.00;98668.38;7398854;19;20014;-56
2022/12/25 07:43:20;;;;;;;0.10;0.08;;;;;;;7.81;100.00;98668.66;7401967;19;20026;-56
2022/12/25 07:45:46;;;;;;;0.10;0.10;;;;;;;8.02;100.00;98664.63;7395999;19;20021;-57
2022/12/25 07:48:13;;;;;;;0.10;0.10;;;;;;;7.74;100.00;98677.38;7393657;19;20017;-56
2022/12/25 07:50:39;;;;;;;0.10;0.00;;;;;;;7.78;100.00;98666.84;7398791;19;20462;-56
2022/12/25 07:53:05;;;;;;;0.20;0.20;;;;;;;8.27;100.00;98655.63;7396939;19;20007;-56
2022/12/25 07:55:31;;;;;;;1.15;0.50;;;;;;;7.64;100.00;98668.47;7395147;19;20013;-56
2022/12/25 07:57:57;;;;;;;1.00;0.85;;;;;;;7.43;100.00;98664.91;7395730;19;20022;-58
2022/12/25 08:00:28;;;;;;;2.92;0.95;;;;;;;7.15;100.00;98666.53;7400414;19;20392;-56
2022/12/25 08:02:55;;;;;;;0.20;0.20;;;;;;;6.94;100.00;98667.72;7402011;19;20021;-56
2022/12/25 08:05:21;;;;;;;0.50;0.50;;;;;;;7.26;100.00;98671.44;7398802;19;20363;-56
2022/12/25 08:07:51;;;;;;;0.10;0.10;;;;;;;7.32;100.00;98681.38;7394801;19;20014;-56
2022/12/25 08:10:17;;;;;;;0.10;0.10;;;;;;;7.43;100.00;98680.75;7397762;19;20006;-56
2022/12/25 08:12:43;;;;;;;0.20;0.20;;;;;;;7.12;100.00;98686.09;7399341;19;20007;-56
2022/12/25 08:15:10;;;;;;;0.52;0.52;;;;;;;7.35;100.00;98679.66;7397495;19;20025;-56
2022/12/25 08:17:36;;;;;;;0.47;0.47;;;;;;;7.04;100.00;98682.22;7398200;19;20015;-57
2022/12/25 08:20:02;;;;;;;0.35;0.35;;;;;;;6.80;100.00;98685.09;7398797;19;20463;-57
2022/12/25 08:22:28;;;;;;;0.52;0.52;;;;;;;7.01;100.00;98683.94;7399443;19;20044;-57
2022/12/25 08:24:55;;;;;;;0.10;0.10;;;;;;;7.29;100.00;98681.56;7397628;19;20359;-57
2022/12/25 08:27:21;;;;;;;0.10;0.10;;;;;;;7.41;100.00;98691.56;7397995;19;20010;-57
2022/12/25 08:29:47;;;;;;;0.10;0.10;;;;;;;7.42;100.00;98690.31;7398069;19;20011;-56
2022/12/25 08:32:13;;;;;;;0.10;0.10;;;;;;;7.35;100.00;98691.50;7401377;19;20066;-57
2022/12/25 08:34:39;;;;;;;0.63;0.45;;;;;;;7.28;100.00;98689.13;7396244;19;20015;-57
2022/12/25 08:37:05;;;;;;;2.28;0.50;;;;;;;7.62;100.00;98693.88;7397363;19;20006;-56
2022/12/25 08:39:31;;;;;;;0.20;0.20;;;;;;;8.04;100.00;98695.41;7397624;19;20013;-56
2022/12/25 08:41:58;;;;;;;0.10;0.10;;;;;;;8.50;100.00;98715.63;7398409;19;20469;-57
2022/12/25 08:44:24;;;;;;;0.10;0.10;;;;;;;8.98;100.00;98716.59;7397810;19;20010;-57
2022/12/25 08:46:50;;;;;;;0.30;0.30;;;;;;;8.55;100.00;98708.59;7397117;19;20014;-57
2022/12/25 08:49:16;;;;;;;0.10;0.05;;;;;;;8.94;100.00;98701.41;7392510;19;20054;-57
2022/12/25 08:51:43;;;;;;;0.10;0.00;;;;;;;8.73;100.00;98711.78;7396666;19;20006;-57
2022/12/25 08:54:09;;;;;;;0.10;0.00;;;;;;;8.70;100.00;98700.94;7396810;19;20014;-57
2022/12/25 08:56:36;;;;;;;0.17;0.17;;;;;;;8.25;100.00;98699.69;7396104;19;20034;-57
2022/12/25 08:59:02;;;;;;;0.20;0.15;;;;;;;8.41;100.00;98704.66;7397259;19;20026;-57
2022/12/25 09:01:28;;;;;;;0.10;0.10;;;;;;;8.18;100.00;98703.66;7398973;19;20025;-57
2022/12/25 09:03:54;;;;;;;0.05;0.05;;;;;;;9.79;100.00;98708.50;7400563;19;20099;-57
2022/12/25 09:06:20;;;;;;;0.10;0.00;;;;;;;9.42;100.00;98709.84;7395146;19;20011;-57
2022/12/25 09:08:46;;;;;;;0.10;0.00;;;;;;;8.91;100.00;98711.47;7391593;19;20063;-57
2022/12/25 09:11:13;;;;;;;0.20;0.17;;;;;;;8.85;100.00;98707.88;7400657;19;20011;-56
2022/12/25 09:13:40;;;;;;;0.15;0.15;;;;;;;8.45;100.00;98719.09;7400841;19;20321;-56
2022/12/25 09:16:11;;;;;;;0.10;0.00;;;;;;;8.43;100.00;98720.81;7396006;19;20006;-56
2022/12/25 09:18:37;;;;;;;;;;;;;;;8.65;100.00;98724.59;7395792;19;20018;-56
2022/12/25 09:21:06;;;;;;;0.38;0.32;;;;;;;8.76;100.00;98721.94;7398132;19;19926;-56
2022/12/25 09:23:33;;;;;;;0.20;0.20;;;;;;;9.32;100.00;98725.91;7399868;19;20013;-56
2022/12/25 09:26:04;;;;;;;0.10;0.10;;;;;;;9.62;100.00;98712.47;7395213;19;20070;-56
2022/12/25 09:28:31;;;;;;;1.33;0.52;;;;;;;9.47;100.00;98715.41;7393603;19;20011;-56
2022/12/25 09:30:58;;;;;;;0.10;0.03;;;;;;;9.56;100.00;98715.22;7398008;19;20014;-56
2022/12/25 09:33:24;;;;;;;0.10;0.10;;;;;;;8.95;100.00;98714.78;7398200;19;20075;-56
2022/12/25 09:35:57;;;;;;;1.13;0.65;;;;;;;9.03;100.00;98718.63;7394669;19;20011;-56
2022/12/25 09:38:24;;;;;;;0.20;0.20;;;;;;;9.80;100.00;98714.84;7394232;19;20021;-56
2022/12/25 09:41:03;;;;;;;0.75;0.52;;;;;;;9.96;100.00;98714.19;7398276;19;20011;-57
2022/12/25 09:43:36;;;;;;;0.25;0.22;;;;;;;9.75;100.00;98718.34;7397865;19;20010;-56
2022/12/25 09:46:03;;;;;;;1.30;1.00;;;;;;;9.50;100.00;98716.44;7394084;19;20458;-56
2022/12/25 09:48:32;;;;;;;0.80;0.55;;;;;;;8.61;100.00;98721.28;7393293;19;20086;-56
2022/12/25 09:51:13;;;;;;;0.85;0.47;;;;;;;9.72;100.00;98716.59;7394591;19;20481;-56
2022/12/25 09:53:44;;;;;;;0.25;0.20;;;;;;;9.74;100.00;98702.94;7399125;19;20010;-56
2022/12/25 09:56:24;;;;;;;0.20;0.20;;;;;;;10.32;100.00;98702.19;7394610;19;20077;-56
2022/12/25 09:58:52;;;;;;;0.20;0.20;;;;;;;10.71;100.00;98693.91;7392944;19;20011;-56
2022/12/25 10:01:47;;;;;;;0.30;0.30;;;;;;;10.51;100.00;98703.25;7398094;19;20006;-57
2022/12/25 10:05:12;;;;;;;0.22;0.22;;;;;;;10.43;100.00;98712.59;7398600;19;20026;-56
2022/12/25 10:08:09;;;;;;;1.77;0.30;;;;;;;11.47;100.00;98696.41;7389694;19;20271;-56
2022/12/25 10:10:57;;;;;;;0.08;0.08;;;;;;;10.96;100.00;98701.28;7395493;19;20022;-56
2022/12/25 10:13:45;;;;;;;0.10;0.00;;;;;;;10.84;100.00;98696.19;7397583;19;20089;-55
2022/12/25 10:16:14;;;;;;;0.35;0.10;;;;;;;10.83;100.00;98694.69;7393797;19;20013;-56
2022/12/25 10:18:51;;;;;;;0.15;0.10;;;;;;;10.91;100.00;98713.19;7394437;19;20019;-56
2022/12/25 10:21:19;;;;;;;0.20;0.20;;;;;;;11.10;100.00;98703.06;7393707;19;20028;-56
2022/12/25 10:24:02;;;;;;;0.10;0.10;;;;;;;10.18;100.00;98711.50;7397015;19;20459;-56
2022/12/25 10:26:30;;;;;;;0.10;0.10;;;;;;;11.34;100.00;98708.09;7394406;19;20021;-56
2022/12/25 10:29:01;;;;;;;0.28;0.20;;;;;;;11.71;100.00;98711.38;7393015;19;20014;-56
2022/12/25 10:31:32;;;;;;;1.35;0.22;;;;;;;11.30;100.00;98715.97;7396016;19;20495;-56
2022/12/25 10:33:58;;;;;;;1.70;0.80;;;;;;;11.09;100.00;98706.31;7397614;19;20027;-56
2022/12/25 10:36:27;;;;;;;0.10;0.10;;;;;;;12.39;100.00;98712.63;7390564;19;20425;-56
2022/12/25 10:38:54;;;;;;;0.32;0.32;;;;;;;11.58;100.00;98708.31;7390140;19;20078;-56
2022/12/25 10:41:30;;;;;;;0.32;0.32;;;;;;;11.39;100.00;98716.44;7393169;19;20014;-56
2022/12/25 10:43:56;;;;;;;2.55;1.10;;;;;;;11.43;100.00;98705.06;7397383;19;20010;-56
2022/12/25 10:46:27;;;;;;;11.50;0.63;;;;;;;11.65;100.00;98707.78;7392369;19;20002;-56
2022/12/25 10:48:56;;;;;;;0.30;0.30;;;;;;;11.70;100.00;98709.84;7391657;19;20015;-57
2022/12/25 10:51:40;;;;;;;0.10;0.10;;;;;;;11.48;100.00;98698.69;7392878;19;20367;-57
2022/12/25 10:54:30;;;;;;;0.10;0.10;;;;;;;11.29;100.00;98706.84;7393776;19;20010;-57
2022/12/25 10:57:15;;;;;;;0.10;0.00;;;;;;;11.36;100.00;98703.53;7396032;19;20014;-57
2022/12/25 10:59:45;;;;;;;2.33;1.13;;;;;;;11.29;100.00;98701.25;7394217;19;20015;-57
2022/12/25 11:02:14;;;;;;;0.67;0.30;;;;;;;11.38;100.00;98700.25;7396612;19;20017;-57
2022/12/25 11:04:41;;;;;;;1.98;0.63;;;;;;;11.53;100.00;98695.16;7393390;19;20010;-57
2022/12/25 11:07:20;;;;;;;1.08;0.47;;;;;;;11.47;100.00;98697.19;7393942;19;20072;-57
2022/12/25 11:10:00;;;;;;;0.38;0.38;;;;;;;11.17;100.00;98707.34;7393327;19;20011;-57
2022/12/25 11:12:42;;;;;;;1.65;0.57;;;;;;;11.79;100.00;98692.81;7395245;19;20037;-57
2022/12/25 11:15:45;;;;;;;0.25;0.25;;;;;;;11.89;100.00;98684.94;7392218;19;20037;-57
2022/12/25 11:18:21;;;;;;;1.85;0.98;;;;;;;11.57;100.00;98687.28;7392067;19;20015;-57
2022/12/25 11:20:56;;;;;;;0.30;0.10;;;;;;;11.78;100.00;98677.34;7392049;19;20007;-57
2022/12/25 11:23:25;;;;;;;0.05;0.00;;;;;;;11.68;100.00;98673.34;7395983;19;20018;-58
2022/12/25 11:25:59;;;;;;;0.08;0.00;;;;;;;11.58;100.00;98674.88;7392356;19;20462;-57
2022/12/25 11:28:28;;;;;;;0.80;0.25;;;;;;;11.72;100.00;98679.41;7395251;19;20340;-58
2022/12/25 11:30:59;;;;;;;2.50;0.10;;;;;;;11.91;100.00;98668.44;7393511;19;20015;-58
2022/12/25 11:33:27;;;;;;;;;;;;;;;13.10;100.00;98671.53;7393883;19;20010;-58
2022/12/25 11:35:56;;;;;;;0.90;0.35;;;;;;;11.50;100.00;98673.84;7394589;19;19914;-58
2022/12/25 11:38:23;;;;;;;0.28;0.28;;;;;;;11.67;100.00;98673.84;7394308;19;20462;-58
2022/12/25 11:41:00;;;;;;;0.82;0.45;;;;;;;11.22;100.00;98681.50;7390744;19;20015;-58
2022/12/25 11:43:31;;;;;;;0.00;0.00;;;;;;;11.61;100.00;98679.41;7400342;19;20010;-58
2022/12/25 11:46:09;;;;;;;;;;;;;;;11.73;100.00;98669.78;7398941;19;20078;-58
2022/12/25 11:48:45;;;;;;;0.20;0.20;;;;;;;11.55;100.00;98664.72;7396542;19;19922;-58
2022/12/25 11:51:14;;;;;;;0.65;0.20;;;;;;;11.99;100.00;98670.19;7398751;19;20014;-58
2022/12/25 11:53:47;;;;;;;1.73;0.90;;;;;;;12.29;100.00;98658.34;7401710;19;20014;-58
2022/12/25 11:56:20;;;;;;;0.10;0.10;;;;;;;13.36;100.00;98663.41;7398119;19;20014;-58
2022/12/25 11:58:53;;;;;;;0.32;0.32;;;;;;;12.53;100.00;98666.84;7399043;19;20010;-58
2022/12/25 12:01:43;;;;;;;0.20;0.20;;;;;;;16.48;100.00;98650.97;7403201;19;20367;-58
2022/12/25 12:04:21;;;;;;;1.60;0.65;;;;;;;10.23;100.00;98665.47;7398989;19;20011;-57
2022/12/25 12:07:02;;;;;;;0.10;0.10;;;;;;;12.06;100.00;98657.72;7395794;19;20018;-57
2022/12/25 12:09:54;;;;;;;;;;;;;;;11.79;100.00;98648.19;7394598;19;20070;-57
2022/12/25 12:12:42;;;;;;;0.15;0.15;;;;;;;12.32;100.00;98637.78;7395767;19;19939;-57
2022/12/25 12:15:30;;;;;;;0.40;0.40;;;;;;;12.69;100.00;98638.06;7395590;19;20011;-57
2022/12/25 12:18:24;;;;;;;0.38;0.13;;;;;;;12.30;100.00;98643.88;7395950;19;20011;-57
2022/12/25 12:21:19;;;;;;;10.25;0.63;;;;;;;14.17;100.00;98637.00;7397125;19;20011;-57
2022/12/25 12:24:13;;;;;;;0.08;0.00;;;;;;;12.55;100.00;98639.91;7399913;19;20028;-57
2022/12/25 12:26:42;;;;;;;0.10;0.10;;;;;;;11.56;100.00;98643.94;7394790;19;20041;-57
2022/12/25 12:29:28;;;;;;;0.10;0.10;;;;;;;12.39;100.00;98635.19;7395231;19;20485;-58
2022/12/25 12:32:00;;;;;;;0.22;0.22;;;;;;;12.15;100.00;98638.63;7397930;19;20451;-57
2022/12/25 12:34:44;;;;;;;0.10;0.03;;;;;;;12.27;100.00;98641.38;7397357;19;20466;-57
2022/12/25 12:37:17;;;;;;;3.40;0.90;;;;;;;13.02;100.00;98631.41;7396581;19;20025;-58
2022/12/25 12:39:44;;;;;;;0.20;0.20;;;;;;;15.18;100.00;98609.72;7397851;19;20462;-58
2022/12/25 12:42:16;;;;;;;0.95;0.47;;;;;;;20.77;100.00;98610.38;7399204;19;20017;-58
2022/12/25 12:44:45;;;;;;;5.40;1.63;;;;;;;17.94;100.00;98599.69;7398131;19;20015;-58
2022/12/25 12:47:39;;;;;;;3.83;0.68;;;;;;;18.89;100.00;98601.09;7397475;19;20021;-58
2022/12/25 12:50:26;;;;;;;0.10;0.00;;;;;;;26.20;96.80;98582.31;7397653;19;20731;-58
2022/12/25 12:52:53;;;;;;;0.38;0.38;;;;;;;20.59;100.00;98582.59;7399679;19;20481;-58
2022/12/25 12:55:33;;;;;;;0.30;0.10;;;;;;;15.50;100.00;98596.41;7395789;19;20029;-57
2022/12/25 12:58:03;;;;;;;0.20;0.20;;;;;;;13.42;100.00;98606.16;7397478;19;20014;-57
2022/12/25 13:00:47;;;;;;;0.10;0.10;;;;;;;13.49;100.00;98599.94;7399811;19;20110;-57
2022/12/25 13:03:19;;;;;;;0.20;0.20;;;;;;;13.31;100.00;98600.66;7400643;19;20018;-57
2022/12/25 13:05:51;;;;;;;0.03;0.03;;;;;;;13.09;100.00;98614.88;7396893;19;20058;-57
2022/12/25 13:08:38;;;;;;;0.40;0.40;;;;;;;13.40;100.00;98600.31;7394781;19;20010;-57
2022/12/25 13:11:22;;;;;;;0.75;0.52;;;;;;;13.37;100.00;98600.59;7396040;19;20007;-57
2022/12/25 13:13:51;;;;;;;0.10;0.10;;;;;;;16.02;100.00;98592.78;7400159;19;20014;-57
2022/12/25 13:16:39;;;;;;;0.17;0.15;;;;;;;12.88;100.00;98602.59;7394498;19;20405;-57
2022/12/25 13:19:16;;;;;;;0.00;0.00;;;;;;;12.63;100.00;98598.22;7395395;19;20014;-56
2022/12/25 13:22:00;;;;;;;1.58;0.32;;;;;;;12.85;100.00;98595.25;7394793;19;20038;-57
2022/12/25 13:24:29;;;;;;;0.85;0.52;;;;;;;12.84;100.00;98588.16;7394652;19;20403;-57
2022/12/25 13:26:55;;;;;;;0.50;0.50;;;;;;;12.80;100.00;98591.22;7395700;19;20010;-56
2022/12/25 13:29:33;;;;;;;2.42;1.05;;;;;;;12.84;100.00;98588.16;7395297;19;20006;-57
2022/12/25 13:32:01;;;;;;;0.60;0.47;;;;;;;12.76;100.00;98584.38;7403879;19;20010;-94